createdAt,value
2019-06-01T00:01:48.957Z,2.10
2019-06-01T00:04:19.503Z,1.80
2019-06-01T00:06:49.840Z,2.00
2019-06-01T00:09:20.214Z,2.37
2019-06-01T00:11:50.549Z,2.20
2019-06-01T00:14:20.904Z,2.20
2019-06-01T00:16:51.262Z,2.00
2019-06-01T00:19:20.934Z,2.45
2019-06-01T00:21:52.271Z,1.97
2019-06-01T00:24:22.708Z,2.20
2019-06-01T00:26:53.074Z,2.00
2019-06-01T00:29:23.379Z,2.30
2019-06-01T00:31:53.760Z,2.30
2019-06-01T00:34:23.434Z,2.60
2019-06-01T00:36:53.671Z,2.80
2019-06-01T00:39:23.377Z,2.83
2019-06-01T00:41:53.593Z,2.87
2019-06-01T00:44:23.920Z,2.90
2019-06-01T00:46:54.241Z,3.10
2019-06-01T00:49:23.944Z,3.00
2019-06-01T00:51:54.214Z,2.90
2019-06-01T00:54:24.543Z,2.90
2019-06-01T00:56:54.907Z,3.27
2019-06-01T00:59:25.242Z,3.33
2019-06-01T01:01:55.592Z,3.60
2019-06-01T01:04:25.928Z,3.60
2019-06-01T01:06:56.298Z,3.13
2019-06-01T01:09:25.991Z,3.40
2019-06-01T01:11:56.229Z,3.50
2019-06-01T01:14:25.924Z,3.70
2019-06-01T01:16:56.328Z,4.40
2019-06-01T01:19:26.672Z,3.72
2019-06-01T01:21:56.437Z,3.47
2019-06-01T01:24:25.945Z,3.70
2019-06-01T01:26:56.806Z,4.03
2019-06-01T01:29:27.254Z,4.20
2019-06-01T01:31:57.357Z,3.53
2019-06-01T01:34:27.620Z,4.00
2019-06-01T01:36:58.136Z,3.40
2019-06-01T01:39:28.504Z,3.70
2019-06-01T01:41:58.674Z,3.77
2019-06-01T01:44:28.983Z,3.80
2019-06-01T01:46:59.380Z,3.60
2019-06-01T01:49:29.731Z,4.33
2019-06-01T01:51:59.576Z,7.33
2019-06-01T01:54:29.818Z,7.87
2019-06-01T01:57:00.374Z,6.30
2019-06-01T01:59:30.707Z,5.78
2019-06-01T02:02:00.447Z,4.97
2019-06-01T02:04:30.703Z,4.40
2019-06-01T02:07:02.302Z,4.23
2019-06-01T02:09:32.786Z,3.87
2019-06-01T02:12:02.490Z,3.80
2019-06-01T02:14:32.716Z,4.10
2019-06-01T02:17:03.124Z,4.40
2019-06-01T02:19:32.790Z,3.70
2019-06-01T02:22:03.690Z,3.53
2019-06-01T02:24:33.474Z,4.35
2019-06-01T02:27:03.721Z,4.13
2019-06-01T02:29:34.075Z,4.07
2019-06-01T02:32:06.477Z,3.97
2019-06-01T02:34:36.401Z,4.03
2019-06-01T02:37:07.043Z,3.63
2019-06-01T02:39:36.731Z,4.60
2019-06-01T02:42:06.956Z,4.53
2019-06-01T02:44:37.222Z,4.83
2019-06-01T02:47:06.890Z,5.90
2019-06-01T02:49:36.487Z,7.87
2019-06-01T02:52:06.954Z,8.03
2019-06-01T02:54:37.319Z,9.40
2019-06-01T02:57:07.660Z,9.90
2019-06-01T02:59:37.982Z,9.65
2019-06-01T03:02:12.626Z,10.07
2019-06-01T03:04:39.928Z,8.80
2019-06-01T03:07:12.184Z,8.57
2019-06-01T03:09:42.159Z,7.50
2019-06-01T03:12:15.319Z,7.77
2019-06-01T03:14:46.508Z,8.87
2019-06-01T03:17:19.955Z,8.40
2019-06-01T03:19:52.650Z,8.03
2019-06-01T03:22:23.396Z,8.47
2019-06-01T03:24:53.080Z,7.83
2019-06-01T03:27:23.008Z,7.27
2019-06-01T03:29:55.044Z,7.17
2019-06-01T03:32:35.954Z,7.00
2019-06-01T03:34:57.228Z,7.60
2019-06-01T03:37:27.749Z,6.80
2019-06-01T03:39:58.076Z,7.00
2019-06-01T03:42:28.424Z,6.90
2019-06-01T03:44:58.108Z,6.87
2019-06-01T03:47:28.353Z,7.60
2019-06-01T03:49:58.687Z,6.60
2019-06-01T03:52:29.039Z,6.05
2019-06-01T03:54:58.720Z,5.43
2019-06-01T03:57:28.978Z,5.20
2019-06-01T03:59:59.327Z,4.30
2019-06-01T04:02:33.136Z,5.10
2019-06-01T04:05:01.618Z,4.63
2019-06-01T04:07:31.965Z,5.37
2019-06-01T04:10:03.762Z,4.93
2019-06-01T04:12:33.710Z,5.13
2019-06-01T04:15:08.453Z,5.03
2019-06-01T04:17:34.586Z,5.30
2019-06-01T04:20:04.486Z,5.10
2019-06-01T04:22:34.759Z,5.23
2019-06-01T04:25:05.992Z,5.73
2019-06-01T04:27:36.472Z,4.72
2019-06-01T04:30:07.408Z,5.20
2019-06-01T04:32:49.485Z,5.00
2019-06-01T04:35:09.192Z,5.57
2019-06-01T04:37:39.452Z,5.20
2019-06-01T04:40:10.046Z,5.80
2019-06-01T04:42:39.759Z,5.43
2019-06-01T04:45:10.961Z,5.10
2019-06-01T04:47:41.345Z,4.87
2019-06-01T04:50:13.053Z,5.23
2019-06-01T04:52:42.822Z,5.47
2019-06-01T04:55:13.206Z,5.53
2019-06-01T04:57:42.874Z,5.57
2019-06-01T05:00:26.872Z,6.27
2019-06-01T05:02:43.885Z,5.83
2019-06-01T05:05:15.215Z,5.93
2019-06-01T05:07:45.848Z,6.37
2019-06-01T05:10:16.725Z,6.70
2019-06-01T05:12:47.096Z,8.20
2019-06-01T05:15:16.901Z,8.73
2019-06-01T05:17:46.502Z,8.80
2019-06-01T05:20:16.909Z,10.10
2019-06-01T05:22:46.630Z,9.77
2019-06-01T05:25:17.195Z,8.77
2019-06-01T05:27:46.853Z,10.43
2019-06-01T05:30:17.644Z,9.83
2019-06-01T05:32:47.521Z,10.50
2019-06-01T05:35:18.013Z,10.40
2019-06-01T05:37:48.304Z,9.67
2019-06-01T05:40:19.764Z,9.47
2019-06-01T05:42:50.151Z,10.67
2019-06-01T05:45:22.658Z,10.07
2019-06-01T05:47:52.581Z,9.13
2019-06-01T05:50:22.718Z,9.60
2019-06-01T05:52:53.042Z,9.07
2019-06-01T05:55:23.385Z,9.30
2019-06-01T05:57:53.718Z,9.90
2019-06-01T06:00:28.581Z,9.90
2019-06-01T06:02:58.795Z,9.67
2019-06-01T06:05:29.132Z,9.83
2019-06-01T06:07:59.494Z,9.60
2019-06-01T06:10:29.839Z,8.83
2019-06-01T06:13:00.167Z,7.60
2019-06-01T06:15:30.520Z,7.37
2019-06-01T06:18:00.863Z,5.33
2019-06-01T06:20:31.354Z,5.10
2019-06-01T06:23:02.088Z,4.70
2019-06-01T06:25:34.130Z,4.90
2019-06-01T06:28:04.432Z,4.10
2019-06-01T06:30:34.110Z,3.90
2019-06-01T06:33:04.383Z,3.90
2019-06-01T06:35:34.092Z,3.50
2019-06-01T06:38:04.337Z,3.80
2019-06-01T06:40:34.035Z,3.20
2019-06-01T06:43:16.594Z,3.37
2019-06-01T06:45:35.748Z,3.90
2019-06-01T06:48:06.000Z,4.60
2019-06-01T06:50:36.387Z,4.03
2019-06-01T06:53:06.854Z,4.20
2019-06-01T06:55:37.186Z,3.87
2019-06-01T06:58:07.530Z,5.03
2019-06-01T07:00:37.901Z,5.20
2019-06-01T07:03:08.224Z,5.30
2019-06-01T07:05:38.564Z,5.40
2019-06-01T07:08:08.912Z,4.77
2019-06-01T07:10:39.390Z,4.27
2019-06-01T07:13:09.733Z,4.27
2019-06-01T07:15:40.099Z,4.10
2019-06-01T07:18:10.460Z,4.27
2019-06-01T07:20:40.824Z,3.77
2019-06-01T07:23:11.996Z,3.57
2019-06-01T07:25:42.324Z,3.13
2019-06-01T07:28:12.712Z,3.10
2019-06-01T07:30:50.392Z,2.97
2019-06-01T07:33:14.387Z,2.40
2019-06-01T07:35:44.632Z,2.03
2019-06-01T07:38:15.019Z,2.23
2019-06-01T07:40:44.696Z,2.70
2019-06-01T07:43:14.932Z,2.73
2019-06-01T07:45:45.404Z,2.50
2019-06-01T07:48:15.147Z,2.97
2019-06-01T07:50:46.580Z,2.50
2019-06-01T07:53:16.195Z,2.47
2019-06-01T07:55:46.488Z,2.77
2019-06-01T07:58:16.824Z,2.83
2019-06-01T08:00:47.180Z,2.40
2019-06-01T08:03:16.874Z,2.43
2019-06-01T08:05:47.135Z,2.23
2019-06-01T08:08:17.491Z,2.10
2019-06-01T08:10:47.834Z,2.00
2019-06-01T08:13:18.223Z,1.60
2019-06-01T08:15:47.905Z,2.13
2019-06-01T08:18:18.147Z,1.70
2019-06-01T08:20:48.486Z,1.67
2019-06-01T08:23:19.642Z,1.63
2019-06-01T08:25:50.012Z,1.90
2019-06-01T08:28:20.320Z,1.63
2019-06-01T08:30:50.757Z,1.37
2019-06-01T08:33:24.864Z,1.40
2019-06-01T08:35:52.932Z,1.60
2019-06-01T08:38:23.386Z,1.40
2019-06-01T08:40:53.795Z,1.57
2019-06-01T08:43:25.406Z,1.40
2019-06-01T08:45:55.838Z,1.30
2019-06-01T08:48:25.679Z,1.40
2019-06-01T08:50:55.984Z,1.50
2019-06-01T08:53:25.822Z,1.22
2019-06-01T08:55:55.420Z,1.40
2019-06-01T08:58:26.106Z,1.20
2019-06-01T09:00:55.889Z,1.00
2019-06-01T09:03:27.672Z,1.10
2019-06-01T09:05:57.460Z,1.00
2019-06-01T09:08:28.818Z,0.97
2019-06-01T09:10:59.186Z,1.13
2019-06-01T09:13:29.538Z,0.90
2019-06-01T09:15:59.870Z,1.00
2019-06-01T09:18:31.508Z,0.93
2019-06-01T09:21:01.935Z,1.20
2019-06-01T09:23:32.258Z,0.90
2019-06-01T09:26:02.713Z,1.33
2019-06-01T09:28:33.983Z,1.00
2019-06-01T09:31:04.799Z,0.80
2019-06-01T09:33:36.733Z,0.70
2019-06-01T09:36:06.883Z,0.80
2019-06-01T09:38:37.872Z,0.70
2019-06-01T09:41:07.714Z,0.80
2019-06-01T09:43:37.324Z,0.77
2019-06-01T09:46:07.592Z,0.90
2019-06-01T09:48:37.856Z,0.85
2019-06-01T09:51:08.258Z,0.50
2019-06-01T09:53:38.156Z,0.70
2019-06-01T09:56:08.561Z,0.80
2019-06-01T09:58:38.855Z,0.77
2019-06-01T10:01:09.309Z,0.60
2019-06-01T10:03:39.015Z,0.60
2019-06-01T10:06:13.752Z,0.60
2019-06-01T10:08:42.434Z,0.70
2019-06-01T10:11:12.902Z,0.60
2019-06-01T10:13:42.725Z,0.80
2019-06-01T10:16:13.083Z,0.60
2019-06-01T10:18:43.458Z,0.70
2019-06-01T10:21:13.929Z,0.73
2019-06-01T10:23:49.287Z,0.60
2019-06-01T10:26:16.953Z,0.60
2019-06-01T10:28:47.299Z,0.60
2019-06-01T10:31:17.659Z,0.60
2019-06-01T10:33:51.259Z,0.68
2019-06-01T10:36:22.267Z,0.50
2019-06-01T10:38:52.752Z,0.50
2019-06-01T10:41:22.470Z,0.40
2019-06-01T10:43:52.052Z,0.68
2019-06-01T10:46:21.667Z,0.70
2019-06-01T10:48:51.938Z,0.57
2019-06-01T10:51:22.268Z,0.50
2019-06-01T10:53:52.625Z,0.70
2019-06-01T10:56:22.316Z,0.78
2019-06-01T10:59:00.144Z,0.75
2019-06-01T11:01:24.595Z,0.50
2019-06-01T11:03:54.305Z,0.80
2019-06-01T11:06:36.821Z,0.60
2019-06-01T11:08:56.441Z,0.62
2019-06-01T11:11:26.756Z,0.68
2019-06-01T11:13:56.439Z,0.50
2019-06-01T11:16:26.717Z,0.73
2019-06-01T11:18:59.271Z,0.75
2019-06-01T11:21:29.584Z,0.60
2019-06-01T11:24:00.007Z,0.85
2019-06-01T11:26:29.703Z,0.53
2019-06-01T11:28:59.937Z,0.50
2019-06-01T11:31:30.341Z,0.40
2019-06-01T11:33:59.977Z,0.55
2019-06-01T11:36:29.582Z,0.60
2019-06-01T11:38:59.876Z,0.60
2019-06-01T11:41:29.559Z,0.63
2019-06-01T11:43:59.821Z,0.70
2019-06-01T11:46:30.165Z,0.60
2019-06-01T11:49:00.511Z,0.85
2019-06-01T11:51:30.179Z,0.80
2019-06-01T11:53:59.785Z,0.60
2019-06-01T11:56:29.386Z,0.80
2019-06-01T11:58:59.645Z,0.70
2019-06-01T12:01:29.350Z,0.80
2019-06-01T12:03:59.754Z,0.75
2019-06-01T12:06:30.092Z,0.70
2019-06-01T12:09:00.512Z,1.00
2019-06-01T12:11:30.871Z,0.78
2019-06-01T12:14:00.559Z,1.10
2019-06-01T12:16:30.820Z,1.00
2019-06-01T12:19:01.228Z,0.80
2019-06-01T12:21:31.589Z,0.90
2019-06-01T12:24:02.096Z,1.40
2019-06-01T12:26:31.794Z,0.90
2019-06-01T12:29:01.418Z,1.00
2019-06-01T12:31:31.793Z,1.00
2019-06-01T12:34:01.482Z,1.07
2019-06-01T12:36:31.095Z,1.32
2019-06-01T12:39:00.714Z,0.90
2019-06-01T12:41:30.299Z,0.90
2019-06-01T12:44:15.699Z,1.07
2019-06-01T12:46:46.953Z,1.00
2019-06-01T12:49:17.500Z,0.78
2019-06-01T12:51:48.784Z,1.35
2019-06-01T12:54:18.607Z,1.07
2019-06-01T12:56:49.820Z,1.05
2019-06-01T12:59:21.293Z,1.20
2019-06-01T13:01:51.639Z,0.82
2019-06-01T13:04:21.343Z,0.95
2019-06-01T13:06:53.775Z,1.02
2019-06-01T13:09:22.965Z,1.10
2019-06-01T13:11:53.693Z,1.15
2019-06-01T13:14:24.018Z,1.10
2019-06-01T13:17:06.344Z,1.00
2019-06-01T13:19:25.632Z,1.50
2019-06-01T13:21:55.402Z,1.47
2019-06-01T13:24:25.015Z,1.25
2019-06-01T13:26:55.277Z,1.52
2019-06-01T13:29:25.709Z,1.20
2019-06-01T13:31:55.408Z,1.15
2019-06-01T13:34:25.015Z,1.00
2019-06-01T13:36:54.990Z,1.42
2019-06-01T13:39:24.602Z,1.02
2019-06-01T13:41:54.489Z,1.22
2019-06-01T13:44:24.080Z,1.10
2019-06-01T13:46:53.929Z,1.32
2019-06-01T13:49:23.518Z,1.10
2019-06-01T13:51:54.713Z,1.23
2019-06-01T13:54:24.444Z,1.20
2019-06-01T13:56:55.195Z,1.20
2019-06-01T13:59:25.515Z,1.30
2019-06-01T14:01:55.429Z,0.98
2019-06-01T14:04:24.996Z,1.05
2019-06-01T14:06:55.476Z,1.40
2019-06-01T14:09:25.868Z,1.20
2019-06-01T14:11:55.625Z,1.27
2019-06-01T14:14:25.153Z,1.17
2019-06-01T14:16:55.794Z,1.45
2019-06-01T14:19:26.207Z,1.20
2019-06-01T14:21:56.019Z,1.10
2019-06-01T14:24:25.583Z,1.43
2019-06-01T14:26:56.336Z,1.07
2019-06-01T14:29:26.781Z,1.17
2019-06-01T14:31:57.396Z,1.20
2019-06-01T14:34:27.255Z,0.90
2019-06-01T14:36:56.813Z,1.37
2019-06-01T14:39:26.407Z,1.57
2019-06-01T14:41:56.039Z,1.32
2019-06-01T14:44:25.634Z,1.10
2019-06-01T14:47:05.021Z,1.25
2019-06-01T14:49:27.108Z,1.17
2019-06-01T14:51:57.836Z,1.15
2019-06-01T14:54:27.556Z,1.15
2019-06-01T14:56:57.949Z,1.00
2019-06-01T14:59:28.292Z,1.00
2019-06-01T15:01:58.643Z,1.10
2019-06-01T15:04:29.058Z,1.10
2019-06-01T15:06:59.419Z,1.22
2019-06-01T15:09:29.724Z,1.22
2019-06-01T15:12:00.091Z,1.37
2019-06-01T15:14:30.462Z,1.30
2019-06-01T15:17:02.203Z,1.37
2019-06-01T15:19:32.691Z,2.58
2019-06-01T15:22:03.607Z,1.90
2019-06-01T15:24:33.403Z,1.90
2019-06-01T15:27:03.653Z,1.67
2019-06-01T15:29:33.411Z,1.70
2019-06-01T15:32:03.001Z,1.82
2019-06-01T15:34:33.266Z,1.67
2019-06-01T15:37:02.963Z,1.80
2019-06-01T15:39:33.280Z,1.65
2019-06-01T15:42:02.955Z,1.60
2019-06-01T15:44:32.560Z,1.70
2019-06-01T15:47:02.384Z,1.55
2019-06-01T15:49:32.685Z,1.82
2019-06-01T15:52:03.317Z,1.72
2019-06-01T15:54:33.764Z,1.70
2019-06-01T15:57:03.466Z,1.90
2019-06-01T15:59:33.110Z,1.70
2019-06-01T16:02:03.411Z,1.72
2019-06-01T16:04:33.185Z,1.77
2019-06-01T16:07:03.462Z,1.62
2019-06-01T16:09:42.543Z,1.20
2019-06-01T16:12:06.657Z,1.67
2019-06-01T16:14:36.371Z,1.72
2019-06-01T16:17:06.670Z,1.77
2019-06-01T16:19:37.045Z,1.95
2019-06-01T16:22:07.382Z,1.62
2019-06-01T16:24:37.741Z,3.67
2019-06-01T16:27:08.116Z,1.85
2019-06-01T16:29:38.526Z,1.75
2019-06-01T16:32:08.877Z,1.80
2019-06-01T16:34:39.267Z,2.60
2019-06-01T16:37:09.636Z,2.42
2019-06-01T16:39:39.949Z,2.80
2019-06-01T16:42:10.284Z,2.80
2019-06-01T16:44:40.633Z,2.98
2019-06-01T16:47:11.016Z,3.05
2019-06-01T16:49:41.389Z,2.80
2019-06-01T16:52:11.759Z,2.80
2019-06-01T16:54:41.428Z,2.70
2019-06-01T16:57:11.721Z,2.60
2019-06-01T16:59:41.397Z,2.70
2019-06-01T17:02:11.702Z,2.35
2019-06-01T17:04:41.415Z,2.10
2019-06-01T17:07:11.711Z,2.13
2019-06-01T17:09:41.367Z,2.03
2019-06-01T17:12:11.628Z,2.05
2019-06-01T17:14:41.341Z,2.00
2019-06-01T17:17:12.283Z,2.00
2019-06-01T17:19:41.947Z,2.40
2019-06-01T17:22:12.200Z,2.30
2019-06-01T17:24:42.193Z,2.13
2019-06-01T17:27:12.444Z,2.10
2019-06-01T17:29:42.138Z,2.43
2019-06-01T17:32:23.023Z,3.00
2019-06-01T17:34:43.637Z,2.50
2019-06-01T17:37:13.455Z,3.00
2019-06-01T17:39:43.125Z,3.10
2019-06-01T17:42:13.605Z,3.30
2019-06-01T17:44:43.965Z,3.90
2019-06-01T17:47:13.756Z,3.47
2019-06-01T17:49:44.064Z,2.97
2019-06-01T17:52:14.736Z,2.77
2019-06-01T17:54:44.465Z,2.50
2019-06-01T17:57:14.073Z,2.47
2019-06-01T17:59:43.652Z,2.57
2019-06-01T18:02:14.012Z,3.00
2019-06-01T18:04:43.705Z,2.80
2019-06-01T18:07:14.683Z,3.37
2019-06-01T18:09:44.349Z,3.27
2019-06-01T18:12:14.829Z,3.17
2019-06-01T18:14:45.186Z,2.80
2019-06-01T18:17:15.922Z,3.00
2019-06-01T18:19:46.325Z,2.73
2019-06-01T18:22:16.807Z,2.60
2019-06-01T18:24:46.537Z,2.50
2019-06-01T18:27:18.445Z,2.90
2019-06-01T18:29:55.848Z,3.03
2019-06-01T18:32:26.200Z,3.47
2019-06-01T18:34:55.899Z,3.30
2019-06-01T18:37:25.501Z,3.40
2019-06-01T18:39:55.748Z,3.00
2019-06-01T18:42:26.986Z,4.23
2019-06-01T18:44:56.595Z,3.47
2019-06-01T18:47:32.205Z,3.87
2019-06-01T18:49:57.908Z,3.63
2019-06-01T18:52:27.518Z,3.93
2019-06-01T18:54:57.109Z,4.10
2019-06-01T18:57:26.725Z,3.97
2019-06-01T18:59:56.964Z,3.40
2019-06-01T19:02:27.465Z,3.20
2019-06-01T19:04:57.200Z,3.40
2019-06-01T19:07:27.596Z,4.40
2019-06-01T19:09:57.265Z,4.20
2019-06-01T19:12:27.617Z,3.37
2019-06-01T19:14:57.321Z,3.73
2019-06-01T19:17:26.959Z,4.50
2019-06-01T19:19:57.228Z,4.10
2019-06-01T19:22:26.912Z,3.87
2019-06-01T19:24:56.488Z,4.27
2019-06-01T19:27:26.084Z,4.10
2019-06-01T19:29:56.376Z,3.80
2019-06-01T19:32:26.091Z,4.40
2019-06-01T19:34:56.010Z,4.10
2019-06-01T19:37:27.105Z,3.73
2019-06-01T19:39:57.872Z,4.03
2019-06-01T19:42:27.576Z,3.90
2019-06-01T19:44:57.854Z,4.30
2019-06-01T19:47:27.512Z,3.97
2019-06-01T19:49:57.780Z,3.17
2019-06-01T19:52:27.467Z,3.23
2019-06-01T19:54:57.735Z,3.50
2019-06-01T19:57:27.800Z,3.20
2019-06-01T19:59:58.179Z,3.63
2019-06-01T20:02:33.714Z,3.27
2019-06-01T20:04:59.779Z,3.73
2019-06-01T20:07:29.494Z,3.17
2019-06-01T20:09:59.753Z,3.80
2019-06-01T20:12:29.456Z,3.73
2019-06-01T20:14:59.711Z,3.03
2019-06-01T20:17:29.392Z,3.70
2019-06-01T20:19:59.657Z,3.50
2019-06-01T20:22:29.328Z,3.50
2019-06-01T20:24:58.970Z,3.37
2019-06-01T20:27:29.259Z,3.45
2019-06-01T20:29:58.976Z,3.20
2019-06-01T20:32:29.332Z,3.33
2019-06-01T20:34:59.724Z,3.47
2019-06-01T20:37:30.090Z,3.25
2019-06-01T20:39:59.777Z,3.60
2019-06-01T20:42:32.796Z,3.30
2019-06-01T20:45:01.983Z,3.67
2019-06-01T20:47:32.322Z,3.33
2019-06-01T20:50:02.003Z,3.90
2019-06-01T20:52:32.281Z,3.87
2019-06-01T20:55:02.635Z,3.90
2019-06-01T20:57:33.018Z,3.57
2019-06-01T21:00:03.586Z,3.43
2019-06-01T21:02:33.958Z,3.30
2019-06-01T21:05:04.582Z,3.27
2019-06-01T21:07:34.940Z,5.37
2019-06-01T21:10:05.444Z,6.97
2019-06-01T21:12:44.652Z,7.37
2019-06-01T21:15:08.705Z,8.73
2019-06-01T21:17:38.469Z,6.50
2019-06-01T21:20:09.873Z,5.03
2019-06-01T21:22:39.917Z,4.17
2019-06-01T21:25:10.386Z,4.00
2019-06-01T21:27:40.731Z,3.90
2019-06-01T21:30:11.470Z,4.03
2019-06-01T21:32:41.831Z,4.03
2019-06-01T21:35:12.706Z,3.97
2019-06-01T21:37:43.163Z,3.50
2019-06-01T21:40:13.847Z,3.87
2019-06-01T21:43:00.359Z,5.00
2019-06-01T21:45:17.847Z,4.50
2019-06-01T21:47:48.233Z,4.20
2019-06-01T21:50:18.244Z,4.00
2019-06-01T21:52:48.647Z,4.33
2019-06-01T21:55:18.358Z,4.73
2019-06-01T21:57:48.742Z,4.53
2019-06-01T22:00:27.960Z,4.90
2019-06-01T22:02:58.192Z,4.47
2019-06-01T22:05:28.523Z,4.17
2019-06-01T22:07:58.840Z,5.93
2019-06-01T22:10:28.546Z,6.27
2019-06-01T22:12:58.995Z,11.67
2019-06-01T22:15:28.713Z,13.65
2019-06-01T22:17:59.072Z,11.70
2019-06-01T22:20:28.883Z,8.60
2019-06-01T22:22:59.290Z,8.53
2019-06-01T22:25:28.934Z,7.50
2019-06-01T22:27:58.542Z,5.40
2019-06-01T22:30:28.766Z,5.30
2019-06-01T22:32:59.228Z,4.83
2019-06-01T22:35:29.500Z,4.40
2019-06-01T22:37:59.195Z,5.00
2019-06-01T22:40:29.455Z,4.57
2019-06-01T22:42:59.768Z,4.67
2019-06-01T22:45:30.137Z,4.80
2019-06-01T22:48:00.534Z,5.43
2019-06-01T22:50:30.241Z,5.05
2019-06-01T22:53:00.468Z,5.33
2019-06-01T22:55:30.152Z,5.77
2019-06-01T22:58:00.395Z,5.70
2019-06-01T23:00:30.110Z,4.87
2019-06-01T23:03:00.350Z,5.13
2019-06-01T23:05:31.148Z,4.97
2019-06-01T23:08:01.504Z,5.07
2019-06-01T23:10:35.140Z,5.40
2019-06-01T23:13:03.067Z,5.10
2019-06-01T23:15:33.437Z,5.63
2019-06-01T23:18:03.763Z,5.77
2019-06-01T23:20:34.129Z,5.30
2019-06-01T23:23:04.455Z,4.57
2019-06-01T23:25:34.809Z,4.47
2019-06-01T23:28:05.365Z,5.00
2019-06-01T23:30:35.709Z,4.30
2019-06-01T23:33:06.043Z,4.40
2019-06-01T23:35:36.410Z,4.20
2019-06-01T23:38:06.737Z,4.60
2019-06-01T23:40:37.078Z,4.77
2019-06-01T23:43:07.441Z,4.20
2019-06-01T23:45:37.732Z,4.20
2019-06-01T23:48:08.060Z,4.60
2019-06-01T23:50:38.401Z,5.87
2019-06-01T23:53:13.783Z,4.20
2019-06-01T23:55:40.711Z,7.00
2019-06-01T23:58:10.417Z,7.03
